createdAt,value
2018-07-10T00:02:25.127Z,16.59
2018-07-10T00:05:24.427Z,16.55
2018-07-10T00:09:38.742Z,16.51
2018-07-10T00:12:07.418Z,16.45
2018-07-10T00:14:35.771Z,16.42
2018-07-10T00:17:04.167Z,16.40
2018-07-10T00:19:32.533Z,16.39
2018-07-10T00:22:00.926Z,16.37
2018-07-10T00:24:29.299Z,16.37
2018-07-10T00:26:57.715Z,16.33
2018-07-10T00:29:26.090Z,16.32
2018-07-10T00:31:54.491Z,16.31
2018-07-10T00:34:22.875Z,16.31
2018-07-10T00:36:51.277Z,16.29
2018-07-10T00:39:19.680Z,16.30
2018-07-10T00:41:48.265Z,16.29
2018-07-10T00:44:16.639Z,16.29
2018-07-10T00:46:45.040Z,16.29
2018-07-10T00:49:13.411Z,16.30
2018-07-10T00:51:42.131Z,16.31
2018-07-10T00:54:10.744Z,16.32
2018-07-10T00:56:39.302Z,16.34
2018-07-10T00:59:08.071Z,16.35
2018-07-10T01:01:36.782Z,16.37
2018-07-10T01:04:05.171Z,16.40
2018-07-10T01:06:33.567Z,16.42
2018-07-10T01:09:01.963Z,16.46
2018-07-10T01:11:30.354Z,16.47
2018-07-10T01:13:58.725Z,16.47
2018-07-10T01:16:35.093Z,16.50
2018-07-10T01:19:06.217Z,16.50
2018-07-10T01:21:34.606Z,16.51
2018-07-10T01:24:04.254Z,16.51
2018-07-10T01:26:35.679Z,16.52
2018-07-10T01:29:10.781Z,16.51
2018-07-10T01:31:42.273Z,16.53
2018-07-10T01:34:10.673Z,16.54
2018-07-10T01:36:39.071Z,16.54
2018-07-10T01:39:07.635Z,16.58
2018-07-10T01:41:36.645Z,16.58
2018-07-10T01:44:05.106Z,16.59
2018-07-10T01:46:33.978Z,16.62
2018-07-10T01:49:02.544Z,16.63
2018-07-10T01:51:31.597Z,16.64
2018-07-10T01:53:59.971Z,16.64
2018-07-10T01:56:28.479Z,16.66
2018-07-10T01:58:57.020Z,16.66
2018-07-10T02:01:25.434Z,16.66
2018-07-10T02:03:54.337Z,16.66
2018-07-10T02:06:22.747Z,16.63
2018-07-10T02:08:51.138Z,16.60
2018-07-10T02:11:19.555Z,16.59
2018-07-10T02:13:47.955Z,16.54
2018-07-10T02:16:16.381Z,16.54
2018-07-10T02:18:45.106Z,16.50
2018-07-10T02:21:13.474Z,16.49
2018-07-10T02:23:44.511Z,16.46
2018-07-10T02:26:19.839Z,16.42
2018-07-10T02:28:48.788Z,16.40
2018-07-10T02:31:17.174Z,16.37
2018-07-10T02:33:45.614Z,16.32
2018-07-10T02:36:13.990Z,16.27
2018-07-10T02:38:45.003Z,16.22
2018-07-10T02:41:15.741Z,16.17
2018-07-10T02:43:47.142Z,16.13
2018-07-10T02:46:15.515Z,16.09
2018-07-10T02:48:43.917Z,16.08
2018-07-10T02:51:12.294Z,16.08
2018-07-10T02:53:42.718Z,16.07
2018-07-10T02:56:12.514Z,16.06
2018-07-10T02:58:40.911Z,16.05
2018-07-10T03:01:09.288Z,16.05
2018-07-10T03:03:39.370Z,16.03
2018-07-10T03:06:07.744Z,16.02
2018-07-10T03:08:36.745Z,16.00
2018-07-10T03:11:05.511Z,15.99
2018-07-10T03:13:33.927Z,15.98
2018-07-10T03:16:02.637Z,15.97
2018-07-10T03:18:31.854Z,15.98
2018-07-10T03:21:00.267Z,15.99
2018-07-10T03:23:28.657Z,15.99
2018-07-10T03:25:57.165Z,15.99
2018-07-10T03:28:25.594Z,16.01
2018-07-10T03:30:53.965Z,16.03
2018-07-10T03:33:22.396Z,16.05
2018-07-10T03:35:50.946Z,16.08
2018-07-10T03:38:19.358Z,16.11
2018-07-10T03:40:47.746Z,16.15
2018-07-10T03:43:16.138Z,16.17
2018-07-10T03:45:44.550Z,16.19
2018-07-10T03:48:12.966Z,16.20
2018-07-10T03:50:41.349Z,16.23
2018-07-10T03:53:10.150Z,16.19
2018-07-10T03:55:39.254Z,16.20
2018-07-10T03:58:07.651Z,16.18
2018-07-10T04:00:36.809Z,16.17
2018-07-10T04:03:05.222Z,16.14
2018-07-10T04:05:33.866Z,16.11
2018-07-10T04:08:04.793Z,16.11
2018-07-10T04:10:35.418Z,16.08
2018-07-10T04:13:11.406Z,16.08
2018-07-10T04:15:40.469Z,16.09
2018-07-10T04:18:11.808Z,16.09
2018-07-10T04:21:11.765Z,16.11
2018-07-10T04:23:40.218Z,16.16
2018-07-10T04:26:15.086Z,16.19
2018-07-10T04:28:43.494Z,16.22
2018-07-10T04:31:27.176Z,16.25
2018-07-10T04:33:55.565Z,16.26
2018-07-10T04:36:23.970Z,16.31
2018-07-10T04:38:57.757Z,16.33
2018-07-10T04:41:30.201Z,16.35
2018-07-10T04:44:10.901Z,16.38
2018-07-10T04:46:45.193Z,16.43
2018-07-10T04:49:23.890Z,16.48
2018-07-10T04:51:58.316Z,16.54
2018-07-10T04:54:31.097Z,16.66
2018-07-10T04:57:05.451Z,16.71
2018-07-10T04:59:35.511Z,16.77
2018-07-10T05:02:04.748Z,16.84
2018-07-10T05:04:33.469Z,16.91
2018-07-10T05:07:04.746Z,16.98
2018-07-10T05:09:33.457Z,17.05
2018-07-10T05:12:02.212Z,17.09
2018-07-10T05:14:30.578Z,17.14
2018-07-10T05:16:59.019Z,17.16
2018-07-10T05:19:27.658Z,17.19
2018-07-10T05:21:56.027Z,17.24
2018-07-10T05:24:24.406Z,17.27
2018-07-10T05:26:52.805Z,17.31
2018-07-10T05:29:21.191Z,17.32
2018-07-10T05:31:49.782Z,17.33
2018-07-10T05:34:18.173Z,17.32
2018-07-10T05:36:46.574Z,17.28
2018-07-10T05:39:14.954Z,17.25
2018-07-10T05:41:45.263Z,17.21
2018-07-10T05:44:18.601Z,17.18
2018-07-10T05:46:47.321Z,17.13
2018-07-10T05:49:15.719Z,17.12
2018-07-10T05:51:47.892Z,17.13
2018-07-10T05:54:16.394Z,17.15
2018-07-10T05:56:44.814Z,17.16
2018-07-10T05:59:13.203Z,17.18
2018-07-10T06:01:42.707Z,17.17
2018-07-10T06:04:14.718Z,17.17
2018-07-10T06:06:43.112Z,17.19
2018-07-10T06:09:11.510Z,17.22
2018-07-10T06:11:39.921Z,17.24
2018-07-10T06:14:08.381Z,17.28
2018-07-10T06:16:38.841Z,17.32
2018-07-10T06:19:07.227Z,17.36
2018-07-10T06:21:40.506Z,17.35
2018-07-10T06:24:11.074Z,17.32
2018-07-10T06:26:40.514Z,17.26
2018-07-10T06:29:09.608Z,17.23
2018-07-10T06:31:45.048Z,17.21
2018-07-10T06:34:13.429Z,17.18
2018-07-10T06:36:49.112Z,17.17
2018-07-10T06:39:17.724Z,17.18
2018-07-10T06:41:50.366Z,17.21
2018-07-10T06:44:19.406Z,17.22
2018-07-10T06:46:50.962Z,17.26
2018-07-10T06:49:38.153Z,17.31
2018-07-10T06:52:11.934Z,17.32
2018-07-10T06:54:48.201Z,17.36
2018-07-10T06:57:16.610Z,17.41
2018-07-10T06:59:44.992Z,17.53
2018-07-10T07:02:13.390Z,17.61
2018-07-10T07:04:41.982Z,17.65
2018-07-10T07:07:10.387Z,17.67
2018-07-10T07:09:39.383Z,17.67
2018-07-10T07:12:07.803Z,17.71
2018-07-10T07:14:36.186Z,17.79
2018-07-10T07:17:04.598Z,17.83
2018-07-10T07:19:33.061Z,17.89
2018-07-10T07:22:01.454Z,17.96
2018-07-10T07:24:29.834Z,18.05
2018-07-10T07:26:58.230Z,18.17
2018-07-10T07:29:26.629Z,18.23
2018-07-10T07:31:55.050Z,18.31
2018-07-10T07:34:23.553Z,18.34
2018-07-10T07:36:52.057Z,18.38
2018-07-10T07:39:20.438Z,18.40
2018-07-10T07:41:49.541Z,18.42
2018-07-10T07:44:17.972Z,18.45
2018-07-10T07:46:47.090Z,18.48
2018-07-10T07:49:15.815Z,18.47
2018-07-10T07:51:44.213Z,18.50
2018-07-10T07:54:12.610Z,18.52
2018-07-10T07:56:41.114Z,18.59
2018-07-10T07:59:09.505Z,18.64
2018-07-10T08:01:37.879Z,18.70
2018-07-10T08:04:06.290Z,18.76
2018-07-10T08:06:34.658Z,18.82
2018-07-10T08:09:04.890Z,18.91
2018-07-10T08:11:33.446Z,19.00
2018-07-10T08:14:01.857Z,19.13
2018-07-10T08:16:30.235Z,19.26
2018-07-10T08:18:58.634Z,19.38
2018-07-10T08:21:27.531Z,19.50
2018-07-10T08:23:55.971Z,19.62
2018-07-10T08:26:24.350Z,19.71
2018-07-10T08:28:52.758Z,19.80
2018-07-10T08:31:21.293Z,19.90
2018-07-10T08:33:49.731Z,19.99
2018-07-10T08:36:18.102Z,20.08
2018-07-10T08:38:46.516Z,20.17
2018-07-10T08:41:23.531Z,20.22
2018-07-10T08:43:52.250Z,20.34
2018-07-10T08:46:29.286Z,20.42
2018-07-10T08:48:57.770Z,20.45
2018-07-10T08:51:26.238Z,20.48
2018-07-10T08:53:55.625Z,20.47
2018-07-10T08:56:24.235Z,20.48
2018-07-10T08:58:52.910Z,20.48
2018-07-10T09:01:21.599Z,20.45
2018-07-10T09:03:50.318Z,20.44
2018-07-10T09:06:19.053Z,20.41
2018-07-10T09:08:48.122Z,20.41
2018-07-10T09:11:16.515Z,20.39
2018-07-10T09:13:44.984Z,20.40
2018-07-10T09:16:13.589Z,20.42
2018-07-10T09:18:42.258Z,20.42
2018-07-10T09:21:10.926Z,20.41
2018-07-10T09:23:39.334Z,20.41
2018-07-10T09:26:08.022Z,20.45
2018-07-10T09:28:38.930Z,20.55
2018-07-10T09:31:08.011Z,20.64
2018-07-10T09:33:36.993Z,20.75
2018-07-10T09:36:06.135Z,20.85
2018-07-10T09:38:36.154Z,20.99
2018-07-10T09:41:06.452Z,21.11
2018-07-10T09:43:36.370Z,21.22
2018-07-10T09:46:04.967Z,21.36
2018-07-10T09:48:33.409Z,21.53
2018-07-10T09:51:01.808Z,21.67
2018-07-10T09:53:30.558Z,21.76
2018-07-10T09:55:58.953Z,21.86
2018-07-10T09:58:27.413Z,21.97
2018-07-10T10:01:01.975Z,22.07
2018-07-10T10:03:30.414Z,22.17
2018-07-10T10:05:59.274Z,22.26
2018-07-10T10:08:27.765Z,22.36
2018-07-10T10:10:56.170Z,22.42
2018-07-10T10:13:24.602Z,22.53
2018-07-10T10:15:52.987Z,22.62
2018-07-10T10:18:21.494Z,22.54
2018-07-10T10:20:50.010Z,22.45
2018-07-10T10:23:18.389Z,22.38
2018-07-10T10:25:49.461Z,22.29
2018-07-10T10:28:18.574Z,22.24
2018-07-10T10:30:47.011Z,22.20
2018-07-10T10:33:15.426Z,22.20
2018-07-10T10:35:43.826Z,22.27
2018-07-10T10:38:12.250Z,22.35
2018-07-10T10:40:41.291Z,22.38
2018-07-10T10:43:11.715Z,22.40
2018-07-10T10:45:41.470Z,22.39
2018-07-10T10:48:10.286Z,22.37
2018-07-10T10:50:39.918Z,22.38
2018-07-10T10:53:08.769Z,22.42
2018-07-10T10:55:37.190Z,22.45
2018-07-10T10:58:06.102Z,22.46
2018-07-10T11:00:34.624Z,22.46
2018-07-10T11:03:03.024Z,22.43
2018-07-10T11:05:31.829Z,22.48
2018-07-10T11:08:01.401Z,22.53
2018-07-10T11:10:30.638Z,22.55
2018-07-10T11:12:59.238Z,22.55
2018-07-10T11:15:27.639Z,22.57
2018-07-10T11:18:03.295Z,22.59
2018-07-10T11:20:39.310Z,22.65
2018-07-10T11:23:08.486Z,22.73
2018-07-10T11:25:40.839Z,22.81
2018-07-10T11:28:12.331Z,22.91
2018-07-10T11:30:40.944Z,22.98
2018-07-10T11:33:10.189Z,23.09
2018-07-10T11:35:39.048Z,23.11
2018-07-10T11:38:10.745Z,23.20
2018-07-10T11:40:41.666Z,23.28
2018-07-10T11:43:10.887Z,23.32
2018-07-10T11:45:39.594Z,23.38
2018-07-10T11:48:08.351Z,23.46
2018-07-10T11:50:37.442Z,23.46
2018-07-10T11:53:05.873Z,23.43
2018-07-10T11:55:35.339Z,23.48
2018-07-10T11:58:05.351Z,23.58
2018-07-10T12:00:33.810Z,23.65
2018-07-10T12:03:04.679Z,23.67
2018-07-10T12:05:35.374Z,23.62
2018-07-10T12:08:03.758Z,23.58
2018-07-10T12:10:33.885Z,23.54
2018-07-10T12:13:02.308Z,23.46
2018-07-10T12:15:30.746Z,23.43
2018-07-10T12:17:59.766Z,23.36
2018-07-10T12:20:38.018Z,23.34
2018-07-10T12:23:07.387Z,23.40
2018-07-10T12:25:41.006Z,23.40
2018-07-10T12:28:10.693Z,23.39
2018-07-10T12:30:39.366Z,23.40
2018-07-10T12:33:08.310Z,23.45
2018-07-10T12:35:36.749Z,23.55
2018-07-10T12:38:05.266Z,23.66
2018-07-10T12:40:33.934Z,23.75
2018-07-10T12:43:02.305Z,23.76
2018-07-10T12:45:30.704Z,23.74
2018-07-10T12:47:59.359Z,23.73
2018-07-10T12:50:28.322Z,23.79
2018-07-10T12:52:56.830Z,23.89
2018-07-10T12:55:26.426Z,24.04
2018-07-10T12:57:55.218Z,24.14
2018-07-10T13:00:26.499Z,24.21
2018-07-10T13:02:55.089Z,24.28
2018-07-10T13:05:28.374Z,24.37
2018-07-10T13:07:56.794Z,24.44
2018-07-10T13:10:25.187Z,24.46
2018-07-10T13:12:53.591Z,24.46
2018-07-10T13:15:21.962Z,24.46
2018-07-10T13:17:50.795Z,24.52
2018-07-10T13:20:19.754Z,24.59
2018-07-10T13:22:48.174Z,24.69
2018-07-10T13:25:16.559Z,24.76
2018-07-10T13:27:44.966Z,24.84
2018-07-10T13:30:13.351Z,24.93
2018-07-10T13:32:41.741Z,25.00
2018-07-10T13:35:10.747Z,25.00
2018-07-10T13:37:42.078Z,24.91
2018-07-10T13:40:10.462Z,24.79
2018-07-10T13:42:51.100Z,24.64
2018-07-10T13:45:20.913Z,24.44
2018-07-10T13:47:49.530Z,24.28
2018-07-10T13:50:26.053Z,24.17
2018-07-10T13:52:55.826Z,24.08
2018-07-10T13:55:24.504Z,24.05
2018-07-10T13:58:00.841Z,23.96
2018-07-10T14:00:30.026Z,23.85
2018-07-10T14:02:58.420Z,23.69
2018-07-10T14:05:26.943Z,23.57
2018-07-10T14:07:55.442Z,23.48
2018-07-10T14:10:24.500Z,23.43
2018-07-10T14:12:53.119Z,23.41
2018-07-10T14:15:21.490Z,23.37
2018-07-10T14:17:50.598Z,23.37
2018-07-10T14:20:19.016Z,23.38
2018-07-10T14:22:47.523Z,23.41
2018-07-10T14:25:15.903Z,23.47
2018-07-10T14:27:44.318Z,23.55
2018-07-10T14:30:12.707Z,23.65
2018-07-10T14:32:41.097Z,23.75
2018-07-10T14:35:09.484Z,23.80
2018-07-10T14:37:37.943Z,23.85
2018-07-10T14:40:06.329Z,23.89
2018-07-10T14:42:34.726Z,23.97
2018-07-10T14:45:05.098Z,24.08
2018-07-10T14:47:33.806Z,24.19
2018-07-10T14:50:03.047Z,24.33
2018-07-10T14:52:31.518Z,24.49
2018-07-10T14:54:59.967Z,24.69
2018-07-10T14:57:28.398Z,24.88
2018-07-10T14:59:56.854Z,25.06
2018-07-10T15:02:25.263Z,25.19
2018-07-10T15:04:53.798Z,25.22
2018-07-10T15:07:22.314Z,25.19
2018-07-10T15:09:50.714Z,25.13
2018-07-10T15:12:19.135Z,25.01
2018-07-10T15:14:47.557Z,24.93
2018-07-10T15:17:21.407Z,24.90
2018-07-10T15:19:49.786Z,24.87
2018-07-10T15:22:18.189Z,24.85
2018-07-10T15:24:46.566Z,24.78
2018-07-10T15:27:14.949Z,24.69
2018-07-10T15:29:43.362Z,24.60
2018-07-10T15:32:11.866Z,24.56
2018-07-10T15:34:40.514Z,24.54
2018-07-10T15:37:08.912Z,24.44
2018-07-10T15:39:37.331Z,24.34
2018-07-10T15:42:05.715Z,24.22
2018-07-10T15:44:34.175Z,24.17
2018-07-10T15:47:02.551Z,24.15
2018-07-10T15:49:30.938Z,24.18
2018-07-10T15:51:59.702Z,24.25
2018-07-10T15:54:28.110Z,24.34
2018-07-10T15:56:56.506Z,24.37
2018-07-10T15:59:24.907Z,24.40
2018-07-10T16:01:53.301Z,24.50
2018-07-10T16:04:21.889Z,24.62
2018-07-10T16:06:50.301Z,24.66
2018-07-10T16:09:20.463Z,24.58
2018-07-10T16:11:56.295Z,24.41
2018-07-10T16:14:24.692Z,24.11
2018-07-10T16:16:53.182Z,23.86
2018-07-10T16:19:27.753Z,23.65
2018-07-10T16:22:01.175Z,23.46
2018-07-10T16:24:34.464Z,23.33
2018-07-10T16:27:02.833Z,23.21
2018-07-10T16:29:31.271Z,23.15
2018-07-10T16:32:02.125Z,23.31
2018-07-10T16:34:30.633Z,23.41
2018-07-10T16:36:59.082Z,23.50
2018-07-10T16:39:27.571Z,23.60
2018-07-10T16:42:01.258Z,23.73
2018-07-10T16:44:29.673Z,23.89
2018-07-10T16:48:22.298Z,24.07
2018-07-10T16:50:59.890Z,24.04
2018-07-10T16:53:33.204Z,24.16
2018-07-10T16:56:01.631Z,24.10
2018-07-10T16:58:32.038Z,24.06
2018-07-10T17:01:00.409Z,24.00
2018-07-10T17:03:29.105Z,23.96
2018-07-10T17:05:58.295Z,24.11
2018-07-10T17:08:26.658Z,24.13
2018-07-10T17:10:55.086Z,24.06
2018-07-10T17:13:23.458Z,23.91
2018-07-10T17:15:51.986Z,23.94
2018-07-10T17:18:20.820Z,23.80
2018-07-10T17:20:49.222Z,23.72
2018-07-10T17:23:18.266Z,23.55
2018-07-10T17:25:47.426Z,23.48
2018-07-10T17:28:16.482Z,23.35
2018-07-10T17:30:44.897Z,23.17
2018-07-10T17:33:13.299Z,23.05
2018-07-10T17:35:41.746Z,22.94
2018-07-10T17:38:10.122Z,22.84
2018-07-10T17:40:38.519Z,22.75
2018-07-10T17:43:08.023Z,22.59
2018-07-10T17:45:36.428Z,22.41
2018-07-10T17:48:04.807Z,22.25
2018-07-10T17:50:33.220Z,22.13
2018-07-10T17:53:01.617Z,22.05
2018-07-10T17:55:30.151Z,21.97
2018-07-10T17:58:03.390Z,21.90
2018-07-10T18:00:32.098Z,21.79
2018-07-10T18:03:00.482Z,21.62
2018-07-10T18:05:28.901Z,21.48
2018-07-10T18:07:57.286Z,21.33
2018-07-10T18:10:26.023Z,21.24
2018-07-10T18:12:54.399Z,21.19
2018-07-10T18:15:22.982Z,21.13
2018-07-10T18:17:51.826Z,21.07
2018-07-10T18:20:20.362Z,21.01
2018-07-10T18:22:49.153Z,21.04
2018-07-10T18:25:17.502Z,21.02
2018-07-10T18:27:45.866Z,20.96
2018-07-10T18:30:14.422Z,20.92
2018-07-10T18:32:42.815Z,20.87
2018-07-10T18:35:11.210Z,20.82
2018-07-10T18:37:39.589Z,20.79
2018-07-10T18:40:08.018Z,20.77
2018-07-10T18:42:37.090Z,20.77
2018-07-10T18:45:05.492Z,20.80
2018-07-10T18:47:33.870Z,20.81
2018-07-10T18:50:02.681Z,20.83
2018-07-10T18:52:31.649Z,20.84
2018-07-10T18:55:00.839Z,20.83
2018-07-10T18:58:05.863Z,20.84
2018-07-10T19:00:47.909Z,20.80
2018-07-10T19:03:16.424Z,20.75
2018-07-10T19:05:53.799Z,20.68
2018-07-10T19:08:22.608Z,20.63
2018-07-10T19:10:51.015Z,20.59
2018-07-10T19:13:19.572Z,20.57
2018-07-10T19:15:49.005Z,20.55
2018-07-10T19:18:17.806Z,20.54
2018-07-10T19:21:05.674Z,20.53
2018-07-10T19:23:43.455Z,20.49
2018-07-10T19:26:11.863Z,20.47
2018-07-10T19:28:40.238Z,20.43
2018-07-10T19:31:27.075Z,20.38
2018-07-10T19:33:56.859Z,20.33
2018-07-10T19:36:25.805Z,20.30
2018-07-10T19:38:54.198Z,20.25
2018-07-10T19:41:23.299Z,20.22
2018-07-10T19:43:51.983Z,20.16
2018-07-10T19:46:20.386Z,20.12
2018-07-10T19:48:50.040Z,20.09
2018-07-10T19:51:21.146Z,20.03
2018-07-10T19:53:54.326Z,19.99
2018-07-10T19:56:23.194Z,19.98
2018-07-10T19:58:51.869Z,19.96
2018-07-10T20:01:56.415Z,19.93
2018-07-10T20:04:42.580Z,19.91
2018-07-10T20:07:18.803Z,19.90
2018-07-10T20:09:57.297Z,19.91
2018-07-10T20:12:39.366Z,19.90
2018-07-10T20:15:30.544Z,19.86
2018-07-10T20:18:04.228Z,19.81
2018-07-10T20:20:35.129Z,19.77
2018-07-10T20:23:30.982Z,19.74
2018-07-10T20:26:15.682Z,19.70
2018-07-10T20:28:59.700Z,19.67
2018-07-10T20:31:38.259Z,19.63
2018-07-10T20:34:11.482Z,19.59
2018-07-10T20:36:43.374Z,19.56
2018-07-10T20:39:12.082Z,19.54
2018-07-10T20:41:44.430Z,19.50
2018-07-10T20:44:14.142Z,19.47
2018-07-10T20:46:47.945Z,19.42
2018-07-10T20:49:17.580Z,19.36
2018-07-10T20:51:52.362Z,19.29
2018-07-10T20:54:29.470Z,19.19
2018-07-10T20:57:03.326Z,19.12
2018-07-10T20:59:49.092Z,19.05
2018-07-10T21:02:29.554Z,18.98
2018-07-10T21:05:14.014Z,18.91
2018-07-10T21:07:50.674Z,18.83
2018-07-10T21:10:30.019Z,18.75
2018-07-10T21:13:09.305Z,18.69
2018-07-10T21:17:55.573Z,18.66
2018-07-10T21:20:31.255Z,18.58
2018-07-10T21:23:05.364Z,18.55
2018-07-10T21:25:39.118Z,18.53
2018-07-10T21:28:18.782Z,18.53
2018-07-10T21:30:57.278Z,18.51
2018-07-10T21:33:37.894Z,18.51
2018-07-10T21:36:08.054Z,18.50
2018-07-10T21:39:48.906Z,18.53
2018-07-10T21:42:27.675Z,18.52
2018-07-10T21:46:02.562Z,18.51
2018-07-10T21:49:51.275Z,18.46
2018-07-10T21:52:19.665Z,18.39
2018-07-10T21:54:48.077Z,18.37
2018-07-10T21:57:17.762Z,18.33
2018-07-10T21:59:50.739Z,18.33
2018-07-10T22:02:19.112Z,18.31
2018-07-10T22:04:47.515Z,18.31
2018-07-10T22:07:16.507Z,18.32
2018-07-10T22:09:45.187Z,18.32
2018-07-10T22:12:15.418Z,18.32
2018-07-10T22:14:44.061Z,18.32
2018-07-10T22:17:19.769Z,18.31
2018-07-10T22:19:49.999Z,18.30
2018-07-10T22:22:19.655Z,18.29
2018-07-10T22:24:48.978Z,18.29
2018-07-10T22:27:17.449Z,18.27
2018-07-10T22:30:55.226Z,18.28
2018-07-10T22:33:23.627Z,18.29
2018-07-10T22:35:52.003Z,18.29
2018-07-10T22:38:20.393Z,18.29
2018-07-10T22:40:48.768Z,18.29
2018-07-10T22:43:17.164Z,18.32
2018-07-10T22:45:45.538Z,18.34
2018-07-10T22:48:13.958Z,18.35
2018-07-10T22:50:42.340Z,18.34
2018-07-10T22:53:10.738Z,18.34
2018-07-10T22:55:39.147Z,18.33
2018-07-10T22:58:08.186Z,18.33
2018-07-10T23:00:37.871Z,18.32
2018-07-10T23:03:17.438Z,18.32
2018-07-10T23:05:48.104Z,18.30
2018-07-10T23:08:18.088Z,18.30
2018-07-10T23:10:47.662Z,18.30
2018-07-10T23:13:18.128Z,18.29
2018-07-10T23:15:47.294Z,18.27
2018-07-10T23:18:16.110Z,18.26
2018-07-10T23:20:44.511Z,18.24
2018-07-10T23:23:12.938Z,18.23
2018-07-10T23:25:41.313Z,18.23
2018-07-10T23:28:09.726Z,18.23
2018-07-10T23:30:40.542Z,18.25
2018-07-10T23:33:11.263Z,18.27
2018-07-10T23:35:41.501Z,18.32
2018-07-10T23:38:49.530Z,18.33
2018-07-10T23:41:31.508Z,18.35
2018-07-10T23:44:00.319Z,18.36
2018-07-10T23:46:34.196Z,18.38
2018-07-10T23:49:09.190Z,18.41
2018-07-10T23:51:48.982Z,18.43
2018-07-10T23:54:17.387Z,18.44
2018-07-10T23:56:45.779Z,18.45
2018-07-10T23:59:14.182Z,18.49
